Manevai — FS2004 — position and weather

sailwx.info

Track history (hours):
 
Tides and Currents Weather Stations Pressure Air Temp Water Temp Dewpoint Dewpoint Depression Visibility Wind Speed Wind Dir Waves Ship Positions

Manevai

Last reported at 2017-Oct-22 12:00 UTC. Time now 2017-Oct-22 12:12 UTC.
Position N 34°15' W 120°51'.

Length 14 m.

Type: Sailing vessel. MMSI: 227504120.

Date/timePositionNaut miles runAvg speedWind from/ knotsBaromVisibWave heightAir tempDewpointWater temp
2017-Oct-22 12:00N 34°15' W 120°51'3 6.4
2017-Oct-22 11:30N 34°17' W 120°54'3 6.8
2017-Oct-22 11:00N 34°20' W 120°56'3 6.9
2017-Oct-22 10:30N 34°23' W 120°59'3 6.8
2017-Oct-22 10:00N 34°25' W 121°01'3 6.7
2017-Oct-22 09:30N 34°28' W 121°04'3 6.2
2017-Oct-22 08:59N 34°31' W 121°06'3 5.6
2017-Oct-22 08:30N 34°33' W 121°08'3 5.8
2017-Oct-22 08:00N 34°35' W 121°09'3 6.1
2017-Oct-22 07:30N 34°38' W 121°12'3 5.9
2017-Oct-22 07:00N 34°41' W 121°13'3 6.0
2017-Oct-22 06:30N 34°43' W 121°15'8 6.2
2017-Oct-22 05:10N 34°51' W 121°20'1 6.5
2017-Oct-22 05:00N 34°52' W 121°20'3 6.1
2017-Oct-22 04:29N 34°54' W 121°22'8 6.4
2017-Oct-22 03:17N 35°01' W 121°27'2 7.1
2017-Oct-22 02:57N 35°03' W 121°29'147 6.1
2017-Oct-21 02:57N 37°19' W 122°35'2 5.1
2017-Oct-21 02:28N 37°22' W 122°35'2 4.5
2017-Oct-21 02:00N 37°24' W 122°35'2 4.5
2017-Oct-21 01:31N 37°26' W 122°35'2 4.8
2017-Oct-21 01:00N 37°29' W 122°35'2 4.5
2017-Oct-21 00:31N 37°31' W 122°35'3 5.4
2017-Oct-21 00:01N 37°34' W 122°35'3 5.6
2017-Oct-20 23:29N 37°36' W 122°35'11 5.8
2017-Oct-20 21:37N 37°47' W 122°32'1 7.0
2017-Oct-20 21:30N 37°48' W 122°31'3 6.1
2017-Oct-20 21:00N 37°50' W 122°28'  
2017-Oct-16 00:23N 37°52' W 122°29'0 0.1
2017-Oct-15 23:58N 37°52' W 122°29'2 4.9
2017-Oct-15 23:30N 37°50' W 122°28'2 3.3
2017-Oct-15 23:00N 37°49' W 122°30'17 4.9
2017-Oct-15 19:24N 37°56' W 122°50'2 4.8
2017-Oct-15 19:00N 37°57' W 122°53'2 3.8
2017-Oct-15 18:27N 37°58' W 122°55'2 3.9
2017-Oct-15 18:00N 37°59' W 122°56'2 3.6
2017-Oct-15 17:29N 38°00' W 122°58'0 0.0
2017-Oct-15 16:59N 38°00' W 122°58'0 0.0
2017-Oct-15 16:29N 38°00' W 122°58'0 0.0
2017-Oct-15 15:57N 38°00' W 122°58'0 0.0
2017-Oct-15 15:27N 38°00' W 122°58'0 0.0
2017-Oct-15 14:39N 38°00' W 122°58'0 0.1
2017-Oct-15 13:51N 38°00' W 122°58'0 0.0
2017-Oct-15 13:27N 38°00' W 122°58'0 0.0
2017-Oct-15 12:49N 38°00' W 122°58'0 0.0
2017-Oct-15 11:34N 38°00' W 122°58'0 0.1
2017-Oct-15 11:28N 38°00' W 122°58'0 0.0
2017-Oct-15 10:58N 38°00' W 122°58'1 0.1
2017-Oct-15 05:06N 38°00' W 122°58'1 5.1
2017-Oct-15 05:00N 37°60' W 122°58'2 4.3
2017-Oct-15 04:29N 37°59' W 122°60'3 5.4
2017-Oct-15 04:00N 37°59' W 123°03'3 5.6
2017-Oct-15 03:30N 38°01' W 123°06'3 5.6
2017-Oct-15 03:00N 38°02' W 123°09'3 5.5
2017-Oct-15 02:30N 38°04' W 123°12'3 5.8
2017-Oct-15 02:00N 38°06' W 123°15'3 6.2
2017-Oct-15 01:30N 38°07' W 123°18'3 6.5
2017-Oct-15 01:00N 38°09' W 123°22'3 6.4
2017-Oct-15 00:30N 38°10' W 123°25'3 6.1
2017-Oct-15 00:00N 38°12' W 123°29'3 5.3
2017-Oct-14 23:30N 38°13' W 123°32'3 5.2
2017-Oct-14 22:59N 38°14' W 123°35'3 5.2
2017-Oct-14 22:28N 38°16' W 123°38'3 5.9
2017-Oct-14 22:00N 38°17' W 123°41'3 5.8
2017-Oct-14 21:30N 38°18' W 123°44'3 5.6
2017-Oct-14 21:00N 38°20' W 123°47'3 5.5
2017-Oct-14 20:30N 38°21' W 123°50'3 5.6
2017-Oct-14 20:00N 38°23' W 123°53'3 5.6
2017-Oct-14 19:30N 38°24' W 123°56'  
Track history (hours):
 
Tides and Currents Weather Stations Pressure Air Temp Water Temp Dewpoint Dewpoint Depression Visibility Wind Speed Wind Dir Waves Ship Positions

Manevai

Last reported at 2017-Oct-22 12:00 UTC. Time now 2017-Oct-22 12:12 UTC.
Position N 34°15' W 120°51'.

Length 14 m.

Type: Sailing vessel. MMSI: 227504120.

Date/timePositionNaut miles runAvg speedWind from/ knotsBaromVisibWave heightAir tempDewpointWater temp
2017-Oct-22 12:00N 34°15' W 120°51'3 6.4
2017-Oct-22 11:30N 34°17' W 120°54'3 6.8
2017-Oct-22 11:00N 34°20' W 120°56'3 6.9
2017-Oct-22 10:30N 34°23' W 120°59'3 6.8
2017-Oct-22 10:00N 34°25' W 121°01'3 6.7
2017-Oct-22 09:30N 34°28' W 121°04'3 6.2
2017-Oct-22 08:59N 34°31' W 121°06'3 5.6
2017-Oct-22 08:30N 34°33' W 121°08'3 5.8
2017-Oct-22 08:00N 34°35' W 121°09'3 6.1
2017-Oct-22 07:30N 34°38' W 121°12'3 5.9
2017-Oct-22 07:00N 34°41' W 121°13'3 6.0
2017-Oct-22 06:30N 34°43' W 121°15'8 6.2
2017-Oct-22 05:10N 34°51' W 121°20'1 6.5
2017-Oct-22 05:00N 34°52' W 121°20'3 6.1
2017-Oct-22 04:29N 34°54' W 121°22'8 6.4
2017-Oct-22 03:17N 35°01' W 121°27'2 7.1
2017-Oct-22 02:57N 35°03' W 121°29'147 6.1
2017-Oct-21 02:57N 37°19' W 122°35'2 5.1
2017-Oct-21 02:28N 37°22' W 122°35'2 4.5
2017-Oct-21 02:00N 37°24' W 122°35'2 4.5
2017-Oct-21 01:31N 37°26' W 122°35'2 4.8
2017-Oct-21 01:00N 37°29' W 122°35'2 4.5
2017-Oct-21 00:31N 37°31' W 122°35'3 5.4
2017-Oct-21 00:01N 37°34' W 122°35'3 5.6
2017-Oct-20 23:29N 37°36' W 122°35'11 5.8
2017-Oct-20 21:37N 37°47' W 122°32'1 7.0
2017-Oct-20 21:30N 37°48' W 122°31'3 6.1
2017-Oct-20 21:00N 37°50' W 122°28'  
2017-Oct-16 00:23N 37°52' W 122°29'0 0.1
2017-Oct-15 23:58N 37°52' W 122°29'2 4.9
2017-Oct-15 23:30N 37°50' W 122°28'2 3.3
2017-Oct-15 23:00N 37°49' W 122°30'17 4.9
2017-Oct-15 19:24N 37°56' W 122°50'2 4.8
2017-Oct-15 19:00N 37°57' W 122°53'2 3.8
2017-Oct-15 18:27N 37°58' W 122°55'2 3.9
2017-Oct-15 18:00N 37°59' W 122°56'2 3.6
2017-Oct-15 17:29N 38°00' W 122°58'0 0.0
2017-Oct-15 16:59N 38°00' W 122°58'0 0.0
2017-Oct-15 16:29N 38°00' W 122°58'0 0.0
2017-Oct-15 15:57N 38°00' W 122°58'0 0.0
2017-Oct-15 15:27N 38°00' W 122°58'0 0.0
2017-Oct-15 14:39N 38°00' W 122°58'0 0.1
2017-Oct-15 13:51N 38°00' W 122°58'0 0.0
2017-Oct-15 13:27N 38°00' W 122°58'0 0.0
2017-Oct-15 12:49N 38°00' W 122°58'0 0.0
2017-Oct-15 11:34N 38°00' W 122°58'0 0.1
2017-Oct-15 11:28N 38°00' W 122°58'0 0.0
2017-Oct-15 10:58N 38°00' W 122°58'1 0.1
2017-Oct-15 05:06N 38°00' W 122°58'1 5.1
2017-Oct-15 05:00N 37°60' W 122°58'2 4.3
2017-Oct-15 04:29N 37°59' W 122°60'3 5.4
2017-Oct-15 04:00N 37°59' W 123°03'3 5.6
2017-Oct-15 03:30N 38°01' W 123°06'3 5.6
2017-Oct-15 03:00N 38°02' W 123°09'3 5.5
2017-Oct-15 02:30N 38°04' W 123°12'3 5.8
2017-Oct-15 02:00N 38°06' W 123°15'3 6.2
2017-Oct-15 01:30N 38°07' W 123°18'3 6.5
2017-Oct-15 01:00N 38°09' W 123°22'3 6.4
2017-Oct-15 00:30N 38°10' W 123°25'3 6.1
2017-Oct-15 00:00N 38°12' W 123°29'3 5.3
2017-Oct-14 23:30N 38°13' W 123°32'3 5.2
2017-Oct-14 22:59N 38°14' W 123°35'3 5.2
2017-Oct-14 22:28N 38°16' W 123°38'3 5.9
2017-Oct-14 22:00N 38°17' W 123°41'3 5.8
2017-Oct-14 21:30N 38°18' W 123°44'3 5.6
2017-Oct-14 21:00N 38°20' W 123°47'3 5.5
2017-Oct-14 20:30N 38°21' W 123°50'3 5.6
2017-Oct-14 20:00N 38°23' W 123°53'3 5.6
2017-Oct-14 19:30N 38°24' W 123°56'  

Dump ship's entire track history